Terminal Aerodrome Forecast
Issued by NWS

Home | Current Version | Previous Version | Text Only | Print | Product List | Glossary On
Versions: 1 2 3 4 5 6 7 8 9 10 11 12 13 14
000
FTUS42 KTAE 180920 AAB
TAFVLD
TAF AMD
KVLD 180920Z 1809/1906 18006KT P6SM BKN250
     FM181000 21003KT 3SM BR OVC005
     FM181200 00000KT 1SM BR OVC002
     FM181500 19004KT 3SM -DZ BR OVC007
     FM190200 00000KT 1SM BR OVC002=

USA.gov is the U.S. government's official web portal to all federal, state and local government web resources and services.